Time;durP1;ratioP1;P1;durP2;ratioP2;P2;SDS_P1;SDS_P2;PMS_P1;PMS_P2;Temp;Humidity;BMP_temperature;BMP_pressure;BME280_temperature;BME280_humidity;BME280_pressure;Samples;Min_cycle;Max_cycle;Signal;HPM_P1;HPM_P2
2021/06/27 00:00:21;;;;;;;8.27;7.60;;;;;;;15.04;94.03;95598.69;5067615;28;20309;-79
2021/06/27 00:02:50;;;;;;;8.83;6.93;;;;;;;15.02;94.45;95598.09;5057330;28;20296;-79
2021/06/27 00:05:20;;;;;;;8.00;7.33;;;;;;;15.01;94.40;95595.66;5060201;28;20265;-79
2021/06/27 00:07:50;;;;;;;8.23;7.53;;;;;;;14.98;94.65;95598.72;5056542;28;20650;-78
2021/06/27 00:10:23;;;;;;;6.40;6.03;;;;;;;14.90;94.56;95594.44;5065686;28;20255;-79
2021/06/27 00:12:51;;;;;;;7.43;6.73;;;;;;;14.85;94.37;95590.81;5062979;28;20249;-79
2021/06/27 00:15:25;;;;;;;5.53;5.07;;;;;;;14.82;94.41;95596.56;5069638;28;20234;-79
2021/06/27 00:17:54;;;;;;;7.00;6.47;;;;;;;14.73;94.43;95593.34;5081991;28;20210;-80
2021/06/27 00:20:25;;;;;;;5.97;5.57;;;;;;;14.67;94.90;95594.16;5055331;28;20301;-79
2021/06/27 00:22:53;;;;;;;13.80;4.73;;;;;;;14.60;95.05;95602.16;5064195;28;20579;-80
2021/06/27 00:25:23;;;;;;;6.10;5.80;;;;;;;14.51;95.06;95598.91;5075102;28;20271;-79
2021/06/27 00:27:54;;;;;;;4.47;4.27;;;;;;;14.45;95.45;95607.72;5057976;28;20311;-79
2021/06/27 00:30:25;;;;;;;3.87;3.67;;;;;;;14.38;95.46;95603.44;5065630;28;20293;-79
2021/06/27 00:32:54;;;;;;;4.77;4.47;;;;;;;14.35;95.61;95607.28;5059646;28;20298;-79
2021/06/27 00:35:22;;;;;;;3.43;3.33;;;;;;;14.24;95.55;95598.13;5064690;28;20218;-79
2021/06/27 00:37:50;;;;;;;5.17;4.93;;;;;;;14.15;95.56;95609.19;5053931;28;20215;-79
2021/06/27 00:40:21;;;;;;;4.20;4.00;;;;;;;14.11;95.72;95602.69;5058422;28;20698;-78
2021/06/27 00:42:50;;;;;;;3.27;3.13;;;;;;;14.04;95.91;95604.53;5062409;28;20283;-79
2021/06/27 00:45:20;;;;;;;3.27;3.07;;;;;;;14.02;96.28;95595.94;5057592;28;20230;-79
2021/06/27 00:47:50;;;;;;;1.87;1.77;;;;;;;14.02;96.37;95596.78;5065544;28;20226;-78
2021/06/27 00:50:21;;;;;;;2.00;1.90;;;;;;;14.03;96.79;95590.44;5062728;28;20214;-78
2021/06/27 00:52:50;;;;;;;2.47;2.33;;;;;;;14.06;97.12;95589.19;5066521;28;20234;-79
2021/06/27 00:55:19;;;;;;;3.40;3.20;;;;;;;14.07;97.51;95582.88;5066756;28;20685;-78
2021/06/27 00:57:50;;;;;;;4.03;3.40;;;;;;;14.07;97.69;95593.47;5060569;28;20249;-77
2021/06/27 01:00:21;;;;;;;3.00;2.87;;;;;;;14.09;98.09;95602.06;5052196;28;20242;-77
2021/06/27 01:02:52;;;;;;;4.00;3.60;;;;;;;14.10;98.06;95606.34;5061372;28;20339;-78
2021/06/27 01:05:23;;;;;;;3.33;3.17;;;;;;;14.11;98.20;95602.69;5048273;28;20297;-79
2021/06/27 01:07:52;;;;;;;4.13;3.93;;;;;;;14.12;98.30;95604.31;5058344;28;20327;-78
2021/06/27 01:10:20;;;;;;;3.30;3.13;;;;;;;14.13;98.41;95587.34;5058950;28;20242;-78
2021/06/27 01:12:50;;;;;;;5.10;4.80;;;;;;;14.12;98.54;95591.03;5060960;28;20249;-78
2021/06/27 01:15:18;;;;;;;5.20;4.93;;;;;;;14.13;98.82;95597.97;5050749;28;20256;-78
2021/06/27 01:17:48;;;;;;;5.03;4.73;;;;;;;14.15;98.49;95593.25;5064632;28;20215;-78
2021/06/27 01:20:21;;;;;;;5.27;4.97;;;;;;;14.16;98.39;95593.06;5053307;28;20222;-78
2021/06/27 01:22:51;;;;;;;5.73;5.43;;;;;;;14.14;98.54;95595.09;5055149;28;20225;-78
2021/06/27 01:25:23;;;;;;;4.10;3.90;;;;;;;14.15;97.96;95602.03;5052937;28;20313;-77
2021/06/27 01:27:51;;;;;;;5.50;5.07;;;;;;;14.15;97.91;95590.59;5054429;28;20229;-77
2021/06/27 01:30:20;;;;;;;4.93;4.63;;;;;;;14.14;97.62;95591.63;5056097;28;20288;-78
2021/06/27 01:32:51;;;;;;;6.90;6.50;;;;;;;14.14;97.69;95595.09;5061432;28;20218;-77
2021/06/27 01:35:21;;;;;;;5.50;5.10;;;;;;;14.15;97.90;95601.22;5052866;28;20233;-77
2021/06/27 01:37:52;;;;;;;5.70;5.40;;;;;;;14.14;97.75;95603.06;5069024;28;21074;-77
2021/06/27 01:40:22;;;;;;;5.87;5.47;;;;;;;14.12;97.73;95597.16;5061767;28;20301;-78
2021/06/27 01:42:52;;;;;;;5.03;4.73;;;;;;;14.12;97.75;95605.13;5061696;28;20245;-78
2021/06/27 01:45:23;;;;;;;4.67;4.23;;;;;;;14.12;97.75;95601.66;5060697;28;20304;-78
2021/06/27 01:47:54;;;;;;;4.50;4.20;;;;;;;14.10;97.65;95603.69;5076418;28;20315;-78
2021/06/27 01:50:24;;;;;;;5.00;4.67;;;;;;;14.08;97.96;95600.41;5058867;28;20698;-78
2021/06/27 01:52:53;;;;;;;5.00;4.70;;;;;;;14.08;97.89;95600.41;5063813;28;20218;-78
2021/06/27 01:55:21;;;;;;;6.70;6.30;;;;;;;14.04;97.94;95593.91;5056342;28;20261;-78
2021/06/27 01:57:50;;;;;;;7.30;6.70;;;;;;;14.04;97.83;95601.88;5056153;28;20297;-77
2021/06/27 02:00:20;;;;;;;6.73;6.23;;;;;;;14.02;97.88;95601.25;5059163;28;20734;-79
2021/06/27 02:02:48;;;;;;;5.30;5.00;;;;;;;14.01;98.28;95605.75;5068671;28;20595;-78
2021/06/27 02:05:16;;;;;;;5.53;5.13;;;;;;;14.02;98.13;95607.38;5052765;28;20378;-78
2021/06/27 02:07:45;;;;;;;5.50;5.00;;;;;;;14.02;98.38;95603.91;5060084;28;20773;-79
2021/06/27 02:10:19;;;;;;;5.67;5.27;;;;;;;14.01;98.40;95600.44;5057677;28;20217;-79
2021/06/27 02:12:48;;;;;;;5.37;5.07;;;;;;;14.02;98.64;95614.53;5051878;28;20675;-79
2021/06/27 02:15:17;;;;;;;7.00;6.40;;;;;;;13.97;98.62;95616.97;5064344;28;20222;-79
2021/06/27 02:17:50;;;;;;;5.83;5.53;;;;;;;13.90;98.52;95627.59;5063719;28;20218;-80
2021/06/27 02:20:19;;;;;;;6.03;5.63;;;;;;;13.83;97.94;95619.66;5053363;28;20307;-79
2021/06/27 02:22:48;;;;;;;4.03;3.83;;;;;;;13.79;97.43;95610.44;5052317;28;20237;-78
2021/06/27 02:25:17;;;;;;;3.10;3.00;;;;;;;13.68;96.94;95618.22;5046341;28;20301;-79
2021/06/27 02:27:46;;;;;;;3.30;3.20;;;;;;;13.63;97.05;95619.66;5053798;28;20237;-79
2021/06/27 02:30:15;;;;;;;2.60;2.50;;;;;;;13.59;97.33;95620.25;5058567;28;20760;-79
2021/06/27 02:32:43;;;;;;;2.93;2.77;;;;;;;13.56;97.44;95618.00;5044042;28;20330;-79
2021/06/27 02:35:13;;;;;;;4.60;4.13;;;;;;;13.56;97.78;95612.72;5060217;28;20309;-79
2021/06/27 02:37:42;;;;;;;3.40;3.20;;;;;;;13.55;97.88;95614.53;5061740;28;20471;-78
2021/06/27 02:40:13;;;;;;;4.60;4.30;;;;;;;13.53;98.00;95613.09;5050660;28;20252;-79
2021/06/27 02:42:42;;;;;;;4.63;4.23;;;;;;;13.38;97.60;95619.41;5052507;28;20273;-78
2021/06/27 02:45:12;;;;;;;4.67;4.37;;;;;;;13.38;97.72;95616.78;5060255;28;20238;-78
2021/06/27 02:47:41;;;;;;;3.57;3.30;;;;;;;13.33;97.63;95611.25;5059430;28;20304;-79
2021/06/27 02:50:13;;;;;;;3.60;3.37;;;;;;;13.34;98.00;95615.53;5054527;28;20490;-78
2021/06/27 02:52:42;;;;;;;3.20;3.10;;;;;;;13.35;98.13;95611.06;5061095;28;20238;-78
2021/06/27 02:55:12;;;;;;;5.67;5.30;;;;;;;13.40;98.43;95607.78;5056654;28;20214;-79
2021/06/27 02:57:42;;;;;;;6.83;6.43;;;;;;;13.42;98.65;95611.06;5057846;28;20213;-78
2021/06/27 03:00:13;;;;;;;6.93;6.53;;;;;;;13.41;98.82;95598.81;5063650;28;20305;-78
2021/06/27 03:02:42;;;;;;;5.80;5.37;;;;;;;13.43;99.05;95607.38;5054579;28;20305;-78
2021/06/27 03:05:11;;;;;;;4.60;4.33;;;;;;;13.43;98.82;95607.38;5056072;28;20387;-78
2021/06/27 03:07:39;;;;;;;5.53;5.23;;;;;;;13.41;98.80;95604.13;5060476;28;20337;-78
2021/06/27 03:10:11;;;;;;;6.90;6.50;;;;;;;13.41;98.66;95594.34;5055083;28;20305;-78
2021/06/27 03:12:39;;;;;;;7.47;6.00;;;;;;;13.41;98.82;95588.22;5059438;28;20246;-80
2021/06/27 03:15:11;;;;;;;6.03;5.73;;;;;;;13.41;98.80;95588.22;5052095;28;20412;-78
2021/06/27 03:17:40;;;;;;;6.07;5.57;;;;;;;13.38;99.03;95576.19;5055092;28;20249;-79
2021/06/27 03:20:10;;;;;;;7.20;6.70;;;;;;;13.38;99.09;95574.34;5054378;28;20218;-78
2021/06/27 03:22:39;;;;;;;5.47;5.00;;;;;;;13.39;99.02;95559.28;5062346;28;20226;-80
2021/06/27 03:25:09;;;;;;;6.93;6.53;;;;;;;13.40;99.23;95560.91;5057010;28;20254;-78
2021/06/27 03:27:38;;;;;;;6.13;5.63;;;;;;;13.40;99.16;95560.91;5058187;28;20309;-78
2021/06/27 03:30:09;;;;;;;6.03;5.73;;;;;;;13.37;99.04;95556.81;5059869;28;20688;-79
2021/06/27 03:32:37;;;;;;;6.03;5.63;;;;;;;13.38;98.91;95557.63;5047085;28;20246;-80
2021/06/27 03:35:08;;;;;;;4.50;4.20;;;;;;;13.41;98.76;95562.53;5055444;28;20713;-79
2021/06/27 03:37:37;;;;;;;6.37;5.80;;;;;;;13.46;98.78;95564.59;5048339;28;20219;-79
2021/06/27 03:40:06;;;;;;;7.63;7.03;;;;;;;13.46;98.98;95559.28;5056061;28;20325;-79
2021/06/27 03:42:34;;;;;;;6.23;5.83;;;;;;;13.50;98.94;95565.78;5063673;28;20276;-80
2021/06/27 03:45:03;;;;;;;5.80;5.43;;;;;;;13.53;98.91;95566.22;5062800;28;20246;-79
2021/06/27 03:47:32;;;;;;;6.47;6.13;;;;;;;13.54;98.26;95572.34;5067176;28;20305;-78
2021/06/27 03:50:01;;;;;;;5.70;5.40;;;;;;;13.51;97.29;95565.59;5064189;28;20287;-78
2021/06/27 03:52:29;;;;;;;3.90;3.70;;;;;;;13.46;96.19;95569.88;5058100;28;20313;-79
2021/06/27 03:54:57;;;;;;;3.67;3.47;;;;;;;13.42;95.68;95568.63;5053746;28;20313;-77
2021/06/27 03:57:25;;;;;;;3.43;3.23;;;;;;;13.34;95.59;95570.47;5072473;28;20314;-78
2021/06/27 03:59:53;;;;;;;2.47;2.33;;;;;;;13.29;95.41;95564.97;5057714;28;20223;-78
2021/06/27 04:02:21;;;;;;;6.50;3.77;;;;;;;13.27;95.17;95572.31;5073490;28;20230;-78
2021/06/27 04:04:51;;;;;;;3.10;2.80;;;;;;;13.21;95.18;95573.13;5069907;28;20494;-78
2021/06/27 04:07:19;;;;;;;2.80;2.70;;;;;;;13.27;95.41;95568.84;5059859;28;20245;-78
2021/06/27 04:09:47;;;;;;;3.00;2.90;;;;;;;13.31;95.43;95576.19;5059339;28;20313;-78
2021/06/27 04:12:15;;;;;;;1.30;1.20;;;;;;;13.38;95.86;95579.66;5057918;28;20291;-81
2021/06/27 04:14:43;;;;;;;1.93;1.83;;;;;;;13.50;96.04;95573.75;5056401;28;20226;-80
2021/06/27 04:17:12;;;;;;;1.10;1.10;;;;;;;13.61;96.30;95563.34;5059095;28;20316;-80
2021/06/27 04:19:41;;;;;;;1.67;1.60;;;;;;;13.72;96.83;95569.06;5056415;28;20219;-80
2021/06/27 04:22:10;;;;;;;2.17;2.07;;;;;;;13.79;96.47;95560.06;5061935;28;20218;-79
2021/06/27 04:24:39;;;;;;;2.83;2.63;;;;;;;13.83;95.85;95553.34;5070137;28;20239;-80
2021/06/27 04:27:07;;;;;;;2.33;2.10;;;;;;;13.93;96.16;95553.72;5072480;28;20790;-80
2021/06/27 04:29:36;;;;;;;2.93;2.83;;;;;;;14.07;95.83;95566.94;5071589;28;20230;-79
2021/06/27 04:32:05;;;;;;;2.80;2.70;;;;;;;14.21;95.33;95568.56;5077881;28;20721;-79
2021/06/27 04:34:33;;;;;;;2.47;2.37;;;;;;;14.25;95.33;95569.75;5063351;28;20229;-79
2021/06/27 04:37:01;;;;;;;3.90;3.70;;;;;;;14.34;95.14;95565.84;5065000;28;20237;-79
2021/06/27 04:39:31;;;;;;;2.70;2.50;;;;;;;14.39;95.68;95555.44;5058256;28;20221;-78
2021/06/27 04:41:59;;;;;;;4.17;3.87;;;;;;;14.46;95.49;95550.94;5065699;28;20250;-79
2021/06/27 04:44:26;;;;;;;3.33;3.13;;;;;;;14.55;95.85;95548.88;5074068;28;20248;-80
2021/06/27 04:46:55;;;;;;;3.80;3.60;;;;;;;14.66;95.83;95544.72;5066110;28;20698;-80
2021/06/27 04:49:23;;;;;;;3.00;2.90;;;;;;;14.77;95.83;95542.22;5060540;28;20218;-80
2021/06/27 04:51:51;;;;;;;3.80;2.77;;;;;;;14.85;95.79;95538.50;5062133;28;20246;-80
2021/06/27 04:54:19;;;;;;;3.13;3.03;;;;;;;14.95;95.68;95540.69;5060602;28;21681;-81
2021/06/27 04:56:48;;;;;;;3.23;3.03;;;;;;;15.01;95.29;95538.00;5054537;28;20238;-80
2021/06/27 04:59:17;;;;;;;4.07;3.87;;;;;;;15.03;95.53;95541.25;5067492;28;20222;-80
2021/06/27 05:01:45;;;;;;;3.63;3.43;;;;;;;15.06;95.50;95532.03;5065147;28;20303;-80
2021/06/27 05:04:13;;;;;;;4.03;3.83;;;;;;;15.12;95.79;95533.03;5051871;28;20679;-80
2021/06/27 05:06:42;;;;;;;5.63;5.33;;;;;;;15.16;96.41;95544.84;5055856;28;20642;-80
2021/06/27 05:09:09;;;;;;;4.60;4.30;;;;;;;15.24;96.23;95544.56;5047455;28;20513;-80
2021/06/27 05:11:38;;;;;;;5.40;5.00;;;;;;;15.36;95.85;95545.50;5054006;28;20278;-80
2021/06/27 05:14:07;;;;;;;4.83;4.63;;;;;;;15.44;95.86;95547.09;5058089;28;20214;-80
2021/06/27 05:16:36;;;;;;;4.77;4.53;;;;;;;15.49;95.73;95542.75;5083996;28;20257;-80
2021/06/27 05:19:04;;;;;;;7.73;5.50;;;;;;;15.53;96.04;95543.13;5064407;28;20456;-80
2021/06/27 05:21:33;;;;;;;6.50;6.10;;;;;;;15.56;95.65;95540.88;5067085;28;20285;-78
2021/06/27 05:24:01;;;;;;;5.17;4.87;;;;;;;15.61;95.47;95545.53;5068353;28;20225;-81
2021/06/27 05:26:29;;;;;;;6.03;5.63;;;;;;;15.60;94.98;95542.06;5063695;28;20335;-81
2021/06/27 05:28:57;;;;;;;6.40;6.00;;;;;;;15.67;95.15;95546.53;5061315;28;20257;-81
2021/06/27 05:31:27;;;;;;;7.87;7.33;;;;;;;15.77;94.87;95546.84;5070294;28;20670;-81
2021/06/27 05:33:55;;;;;;;8.17;7.23;;;;;;;15.88;94.00;95546.13;5057790;28;20222;-81
2021/06/27 05:36:23;;;;;;;6.17;5.87;;;;;;;16.03;93.24;95546.59;5061458;28;20300;-81
2021/06/27 05:38:52;;;;;;;6.13;5.73;;;;;;;16.16;92.95;95546.44;5065086;28;20222;-83
2021/06/27 05:41:20;;;;;;;6.17;5.77;;;;;;;16.31;92.42;95537.28;5067181;28;20225;-81
2021/06/27 05:43:49;;;;;;;7.23;6.73;;;;;;;16.46;92.18;95543.06;5067265;28;20550;-81
2021/06/27 05:46:17;;;;;;;5.93;5.53;;;;;;;16.59;92.09;95540.22;5067480;28;20664;-81
2021/06/27 05:48:47;;;;;;;7.10;6.47;;;;;;;16.72;91.18;95545.41;5065711;28;20233;-82
2021/06/27 05:51:16;;;;;;;5.97;5.67;;;;;;;16.75;90.31;95544.97;5069877;28;20222;-81
2021/06/27 05:53:45;;;;;;;6.10;5.60;;;;;;;16.81;90.40;95543.25;5059851;28;20214;-81
2021/06/27 05:56:16;;;;;;;5.53;5.07;;;;;;;16.91;90.00;95548.03;5054039;28;20232;-81
2021/06/27 05:58:44;;;;;;;5.20;4.83;;;;;;;17.00;89.75;95546.66;5052197;28;20333;-81
2021/06/27 06:01:15;;;;;;;5.10;4.80;;;;;;;17.10;89.64;95543.47;5067120;28;20424;-81
2021/06/27 06:03:44;;;;;;;5.13;4.87;;;;;;;17.15;89.55;95549.75;5064052;28;20233;-81
2021/06/27 06:06:14;;;;;;;3.83;3.63;;;;;;;17.24;89.81;95559.06;5063572;28;20671;-82
2021/06/27 06:08:45;;;;;;;4.83;4.53;;;;;;;17.33;89.76;95552.34;5063396;28;20245;-82
2021/06/27 06:11:18;;;;;;;4.97;3.70;;;;;;;17.45;89.42;95548.88;5061270;28;20222;-81
2021/06/27 06:13:46;;;;;;;4.10;3.90;;;;;;;17.57;89.42;95552.41;5065581;28;20264;-82
2021/06/27 06:16:15;;;;;;;4.13;3.93;;;;;;;17.72;89.15;95560.78;5070397;28;20238;-80
2021/06/27 06:18:44;;;;;;;4.80;4.50;;;;;;;17.87;88.70;95558.50;5067954;28;20215;-81
2021/06/27 06:21:15;;;;;;;4.40;3.87;;;;;;;17.96;88.39;95545.59;5067000;28;20743;-82
2021/06/27 06:23:44;;;;;;;4.60;4.30;;;;;;;18.09;88.20;95557.91;5079450;28;20237;-83
2021/06/27 06:26:12;;;;;;;6.33;5.93;;;;;;;18.23;87.69;95559.28;5068186;28;20283;-81
2021/06/27 06:28:40;;;;;;;4.70;4.50;;;;;;;18.32;87.34;95563.22;5071912;28;20690;-80
2021/06/27 06:31:09;;;;;;;6.00;5.07;;;;;;;18.37;87.24;95557.97;5065393;28;20260;-82
2021/06/27 06:33:37;;;;;;;4.57;4.27;;;;;;;18.44;87.37;95558.66;5067564;28;20222;-81
2021/06/27 06:36:07;;;;;;;4.67;4.43;;;;;;;18.55;87.20;95558.88;5070201;28;20284;-80
2021/06/27 06:38:36;;;;;;;4.90;4.60;;;;;;;18.55;86.81;95564.22;5076097;28;20230;-82
2021/06/27 06:41:05;;;;;;;5.10;4.80;;;;;;;18.55;86.47;95564.22;5061234;28;20242;-82
2021/06/27 06:43:33;;;;;;;6.07;5.67;;;;;;;18.61;86.11;95557.94;5055242;28;20247;-82
2021/06/27 06:46:02;;;;;;;5.43;5.13;;;;;;;18.71;85.83;95553.63;5071632;28;20237;-81
2021/06/27 06:48:30;;;;;;;4.57;4.27;;;;;;;18.77;84.91;95545.72;5070544;28;20222;-80
2021/06/27 06:50:58;;;;;;;5.37;5.07;;;;;;;18.72;85.03;95557.13;5086700;28;20263;-81
2021/06/27 06:53:26;;;;;;;5.37;5.07;;;;;;;18.70;85.37;95562.72;5062548;28;20226;-81
2021/06/27 06:55:57;;;;;;;5.67;5.27;;;;;;;18.67;84.83;95557.84;5060828;28;20305;-80
2021/06/27 06:58:29;;;;;;;4.97;4.67;;;;;;;18.65;84.87;95556.44;5066768;28;20281;-80
2021/06/27 07:00:58;;;;;;;5.23;4.93;;;;;;;18.68;85.60;95547.97;5070481;28;20722;-81
2021/06/27 07:03:26;;;;;;;5.47;5.17;;;;;;;18.65;85.80;95551.09;5062862;28;20723;-81
2021/06/27 07:05:55;;;;;;;6.47;6.03;;;;;;;18.80;86.13;95550.59;5060445;28;20282;-80
2021/06/27 07:08:23;;;;;;;4.00;3.70;;;;;;;18.99;85.73;95549.34;5061135;28;20251;-82
2021/06/27 07:10:51;;;;;;;6.50;5.90;;;;;;;19.21;84.43;95547.66;5057141;28;20439;-81
2021/06/27 07:13:21;;;;;;;5.00;4.70;;;;;;;19.44;84.47;95546.69;5059666;28;20307;-80
2021/06/27 07:15:50;;;;;;;6.30;5.87;;;;;;;19.60;84.83;95550.47;5055504;28;20230;-79
2021/06/27 07:18:19;;;;;;;5.77;5.47;;;;;;;19.84;80.55;95551.09;5058156;28;20239;-82
2021/06/27 07:20:48;;;;;;;4.87;4.57;;;;;;;19.91;81.09;95541.03;5064307;28;20621;-80
2021/06/27 07:23:16;;;;;;;4.67;4.37;;;;;;;20.14;80.67;95538.19;5065385;28;20670;-80
2021/06/27 07:25:44;;;;;;;5.73;5.33;;;;;;;20.18;80.51;95541.97;5063785;28;20215;-80
2021/06/27 07:28:12;;;;;;;3.77;3.57;;;;;;;20.11;79.52;95546.69;5067694;28;20703;-80
2021/06/27 07:30:42;;;;;;;3.77;3.57;;;;;;;20.25;78.41;95551.72;5066733;28;20216;-83
2021/06/27 07:33:11;;;;;;;6.07;3.93;;;;;;;20.39;78.84;95555.66;5059094;28;20288;-79
2021/06/27 07:35:40;;;;;;;4.03;3.83;;;;;;;20.60;77.50;95544.19;5062559;28;20306;-80
2021/06/27 07:38:08;;;;;;;4.57;4.33;;;;;;;20.76;79.19;95541.66;5069190;28;20258;-82
2021/06/27 07:40:36;;;;;;;3.10;2.90;;;;;;;20.98;76.49;95542.47;5057760;28;20227;-80
2021/06/27 07:43:05;;;;;;;3.67;3.47;;;;;;;21.20;75.46;95543.22;5085634;28;20254;-81
2021/06/27 07:45:34;;;;;;;3.70;3.50;;;;;;;21.38;75.47;95534.03;5071169;28;20655;-79
2021/06/27 07:48:04;;;;;;;2.60;2.50;;;;;;;21.49;72.82;95545.69;5061591;28;20223;-80
2021/06/27 07:50:32;;;;;;;5.40;2.97;;;;;;;21.66;74.23;95537.50;5075296;28;20321;-83
2021/06/27 07:53:01;;;;;;;3.27;3.07;;;;;;;21.74;72.81;95543.19;5068176;28;20614;-81
2021/06/27 07:55:29;;;;;;;2.63;2.53;;;;;;;21.72;71.36;95537.28;5064981;28;20240;-80
2021/06/27 07:57:57;;;;;;;2.37;2.27;;;;;;;21.84;72.07;95529.84;5068344;28;20347;-79
2021/06/27 08:00:25;;;;;;;2.20;2.00;;;;;;;22.04;71.54;95539.16;5064650;28;20245;-80
2021/06/27 08:02:53;;;;;;;2.03;1.83;;;;;;;22.16;71.51;95534.41;5066509;28;20313;-80
2021/06/27 08:05:22;;;;;;;2.23;2.03;;;;;;;22.28;70.88;95526.94;5067289;28;20250;-80
2021/06/27 08:07:50;;;;;;;2.77;2.57;;;;;;;22.42;72.03;95527.28;5066444;28;20662;-80
2021/06/27 08:10:19;;;;;;;1.90;1.80;;;;;;;22.59;69.73;95521.72;5058705;28;20254;-80
2021/06/27 08:12:47;;;;;;;4.00;3.67;;;;;;;22.82;69.64;95521.28;5060814;28;20632;-80
2021/06/27 08:15:18;;;;;;;1.90;1.80;;;;;;;22.95;68.99;95518.13;5050552;28;20223;-79
2021/06/27 08:17:48;;;;;;;1.90;1.80;;;;;;;23.18;67.02;95524.09;5050365;28;20305;-80
2021/06/27 08:20:18;;;;;;;4.20;2.80;;;;;;;23.31;66.70;95523.56;5062965;28;20245;-82
2021/06/27 08:22:48;;;;;;;2.92;2.70;;;;;;;23.45;65.95;95521.97;5064046;28;20281;-80
2021/06/27 08:25:16;;;;;;;2.15;2.05;;;;;;;23.62;66.46;95529.03;5075952;28;20283;-81
2021/06/27 08:27:45;;;;;;;2.50;2.40;;;;;;;23.72;65.56;95529.03;5057582;28;20275;-82
2021/06/27 08:30:14;;;;;;;1.50;1.48;;;;;;;23.93;63.85;95525.22;5068759;28;20225;-80
2021/06/27 08:32:44;;;;;;;2.33;2.22;;;;;;;24.13;63.65;95524.38;5068243;28;20305;-81
2021/06/27 08:35:13;;;;;;;1.98;1.88;;;;;;;24.38;62.46;95524.38;5056117;28;20230;-80
2021/06/27 08:37:42;;;;;;;1.27;1.27;;;;;;;24.65;60.38;95520.50;5052715;28;20756;-80
2021/06/27 08:40:14;;;;;;;1.83;1.45;;;;;;;24.76;60.88;95521.28;5061249;28;20245;-81
2021/06/27 08:42:43;;;;;;;1.15;1.13;;;;;;;24.79;58.78;95509.94;5053839;28;20280;-80
2021/06/27 08:45:12;;;;;;;2.08;1.98;;;;;;;24.80;59.43;95523.16;5063569;28;20227;-81
2021/06/27 08:47:41;;;;;;;0.85;0.85;;;;;;;24.53;60.01;95537.00;5064881;28;20226;-81
2021/06/27 08:50:12;;;;;;;1.25;1.25;;;;;;;24.45;58.84;95521.38;5064342;28;20242;-81
2021/06/27 08:52:42;;;;;;;1.00;1.00;;;;;;;24.61;60.63;95514.06;5070181;28;20724;-82
2021/06/27 08:55:14;;;;;;;1.35;1.10;;;;;;;24.87;58.48;95512.88;5067680;28;20234;-81
2021/06/27 08:57:43;;;;;;;1.67;0.60;;;;;;;25.06;55.78;95518.47;5064228;28;20238;-81
2021/06/27 09:00:14;;;;;;;0.98;0.98;;;;;;;25.16;55.46;95521.09;5065040;28;20313;-81
2021/06/27 09:02:41;;;;;;;0.82;0.82;;;;;;;25.15;55.47;95519.50;5063555;28;20305;-82
2021/06/27 09:05:10;;;;;;;0.65;0.65;;;;;;;25.27;55.92;95518.34;5056282;28;20715;-83
2021/06/27 09:07:39;;;;;;;1.10;0.75;;;;;;;25.65;55.64;95522.94;5059961;28;20226;-85
2021/06/27 09:10:10;;;;;;;0.77;0.77;;;;;;;25.94;55.93;95509.47;5076370;28;20265;-83
2021/06/27 09:12:50;;;;;;;1.00;1.00;;;;;;;26.19;53.30;95516.53;5059639;28;20299;-81
2021/06/27 09:15:36;;;;;;;1.25;0.85;;;;;;;26.05;51.34;95515.56;5064657;28;20756;-83
2021/06/27 09:18:08;;;;;;;0.90;0.90;;;;;;;26.14;52.02;95505.75;5062276;28;20219;-79
2021/06/27 09:20:38;;;;;;;0.70;0.70;;;;;;;26.15;50.99;95506.56;5066325;28;20238;-84
2021/06/27 09:23:08;;;;;;;0.88;0.88;;;;;;;26.41;51.67;95507.94;5061868;28;20229;-82
2021/06/27 09:25:36;;;;;;;0.85;0.85;;;;;;;26.70;52.18;95499.78;5057148;28;20218;-80
2021/06/27 09:28:09;;;;;;;0.70;0.70;;;;;;;26.77;50.82;95497.50;5063705;28;20218;-81
2021/06/27 09:30:40;;;;;;;0.55;0.55;;;;;;;26.84;51.03;95495.25;5069453;28;20239;-80
2021/06/27 09:33:11;;;;;;;0.75;0.75;;;;;;;26.70;50.35;95494.34;5065679;28;20215;-82
2021/06/27 09:35:48;;;;;;;1.17;1.08;;;;;;;26.87;51.75;95494.66;5064535;28;20242;-86
2021/06/27 09:38:25;;;;;;;0.68;0.68;;;;;;;26.94;50.65;95495.09;5063044;28;20738;-82
2021/06/27 09:40:56;;;;;;;1.33;1.15;;;;;;;27.14;49.67;95495.94;5073822;28;20226;-83
2021/06/27 09:43:26;;;;;;;0.80;0.80;;;;;;;27.38;50.30;95510.25;5064985;28;20230;-81
2021/06/27 09:45:57;;;;;;;0.85;0.85;;;;;;;27.66;49.44;95504.97;5065215;28;20317;-82
2021/06/27 09:48:26;;;;;;;0.70;0.70;;;;;;;27.79;49.26;95509.63;5062861;28;20214;-82
2021/06/27 09:50:58;;;;;;;0.80;0.80;;;;;;;27.81;49.17;95499.31;5066690;28;20647;-81
2021/06/27 09:53:34;;;;;;;0.57;0.55;;;;;;;27.82;49.22;95509.03;5062181;28;20708;-83
2021/06/27 09:56:07;;;;;;;0.65;0.65;;;;;;;28.03;48.76;95504.06;5059933;28;20309;-82
2021/06/27 09:58:37;;;;;;;1.02;1.02;;;;;;;28.28;48.93;95505.53;5057927;28;20246;-81
2021/06/27 10:01:22;;;;;;;0.57;0.57;;;;;;;28.41;50.30;95499.34;5061511;28;20287;-81
2021/06/27 10:03:55;;;;;;;0.73;0.73;;;;;;;28.81;49.25;95496.94;5079621;28;20214;-83
2021/06/27 10:06:25;;;;;;;1.00;1.00;;;;;;;28.96;47.79;95499.34;5072777;28;20226;-81
2021/06/27 10:08:54;;;;;;;0.82;0.60;;;;;;;28.79;47.62;95501.84;5077854;28;20218;-81
2021/06/27 10:11:24;;;;;;;0.88;0.88;;;;;;;28.78;49.32;95506.47;5063247;28;20219;-81
2021/06/27 10:13:55;;;;;;;0.80;0.80;;;;;;;28.74;47.34;95507.38;5064707;28;20218;-82
2021/06/27 10:16:26;;;;;;;0.60;0.60;;;;;;;28.83;46.97;95500.94;5074907;28;20252;-81
2021/06/27 10:18:55;;;;;;;0.85;0.85;;;;;;;29.10;47.32;95494.69;5055273;28;20234;-81
2021/06/27 10:21:24;;;;;;;1.27;1.17;;;;;;;29.22;48.42;95496.06;5055003;28;20449;-81
2021/06/27 10:23:53;;;;;;;0.85;0.85;;;;;;;29.51;45.91;95498.41;5064149;28;20297;-81
2021/06/27 10:26:24;;;;;;;2.92;2.25;;;;;;;29.62;48.09;95484.25;5058468;28;20413;-82
2021/06/27 10:28:54;;;;;;;0.80;0.80;;;;;;;29.74;44.22;95487.25;5056540;28;20556;-81
2021/06/27 10:31:25;;;;;;;1.10;1.10;;;;;;;29.56;44.98;95490.97;5062358;28;20249;-81
2021/06/27 10:33:53;;;;;;;0.95;0.50;;;;;;;29.63;46.15;95485.91;5056002;28;20225;-82
2021/06/27 10:36:32;;;;;;;0.88;0.88;;;;;;;29.59;44.55;95484.91;5062696;28;20388;-82
2021/06/27 10:39:02;;;;;;;0.77;0.77;;;;;;;29.48;46.05;95483.50;5062646;28;20250;-81
2021/06/27 10:42:02;;;;;;;0.43;0.43;;;;;;;29.78;45.92;95483.91;5059479;28;20238;-82
2021/06/27 10:44:59;;;;;;;0.95;0.95;;;;;;;29.92;44.41;95477.28;5059501;28;20676;-82
2021/06/27 10:47:32;;;;;;;0.73;0.73;;;;;;;29.85;44.25;95468.75;5058715;28;20371;-82
2021/06/27 10:50:05;;;;;;;2.35;1.00;;;;;;;30.03;44.73;95459.56;5060906;28;20700;-81
2021/06/27 10:53:00;;;;;;;1.85;1.00;;;;;;;30.27;43.90;95461.97;5062563;28;20868;-80
2021/06/27 10:55:31;;;;;;;0.65;0.65;;;;;;;30.09;44.34;95454.03;5066538;28;20252;-80
2021/06/27 10:58:02;;;;;;;0.80;0.80;;;;;;;29.88;45.09;95459.16;5062306;28;20322;-83
2021/06/27 11:01:04;;;;;;;0.50;0.50;;;;;;;30.01;45.98;95452.84;5080165;28;20309;-82
2021/06/27 11:03:35;;;;;;;0.77;0.68;;;;;;;30.08;43.64;95463.28;5056273;28;20226;-82
2021/06/27 11:06:05;;;;;;;0.60;0.60;;;;;;;29.93;44.90;95461.75;5073442;28;20301;-81
2021/06/27 11:08:39;;;;;;;0.70;0.70;;;;;;;29.95;45.70;95459.53;5063817;28;20269;-81
2021/06/27 11:11:14;;;;;;;0.80;0.80;;;;;;;30.03;44.28;95442.44;5069383;28;20648;-83
2021/06/27 11:13:44;;;;;;;0.73;0.73;;;;;;;30.05;44.89;95447.56;5069198;28;20233;-81
2021/06/27 11:16:17;;;;;;;1.10;1.10;;;;;;;30.17;44.02;95445.09;5069974;28;20229;-81
2021/06/27 11:18:47;;;;;;;1.02;1.02;;;;;;;30.15;44.77;95442.69;5061516;28;20862;-82
2021/06/27 11:21:18;;;;;;;0.88;0.88;;;;;;;30.23;42.33;95444.66;5069685;28;20229;-80
2021/06/27 11:24:08;;;;;;;0.85;0.85;;;;;;;30.19;43.71;95443.69;5081910;28;20265;-82
2021/06/27 11:26:55;;;;;;;0.70;0.70;;;;;;;30.30;43.62;95445.00;5061188;28;20238;-81
2021/06/27 11:29:47;;;;;;;0.80;0.80;;;;;;;30.55;45.05;95435.31;5059296;28;20311;-81
2021/06/27 11:32:50;;;;;;;0.93;0.88;;;;;;;30.69;44.20;95432.47;5067772;28;20226;-82
2021/06/27 11:35:39;;;;;;;1.67;1.27;;;;;;;30.59;43.86;95435.47;5060731;28;20230;-80
2021/06/27 11:38:29;;;;;;;1.00;0.80;;;;;;;30.54;43.78;95441.88;5063147;28;20658;-81
2021/06/27 11:40:58;;;;;;;0.90;0.90;;;;;;;30.49;43.00;95433.06;5061730;28;20213;-81
2021/06/27 11:43:51;;;;;;;0.80;0.80;;;;;;;30.23;42.33;95439.19;5065717;28;20772;-80
2021/06/27 11:46:31;;;;;;;0.80;0.80;;;;;;;30.04;43.22;95427.72;5075195;28;20379;-81
2021/06/27 11:49:01;;;;;;;3.28;0.70;;;;;;;30.13;44.55;95428.59;5063220;28;20272;-80